createdAt,value
2019-03-30T00:01:00.257Z,96.89
2019-03-30T00:03:31.154Z,97.12
2019-03-30T00:06:02.460Z,98.05
2019-03-30T00:08:33.254Z,99.92
2019-03-30T00:11:03.965Z,100.00
2019-03-30T00:13:34.751Z,100.00
2019-03-30T00:16:06.083Z,100.00
2019-03-30T00:18:36.838Z,100.00
2019-03-30T00:21:07.566Z,99.74
2019-03-30T00:23:38.529Z,99.38
2019-03-30T00:26:09.291Z,99.18
2019-03-30T00:28:40.006Z,99.51
2019-03-30T00:31:10.957Z,100.00
2019-03-30T00:33:41.877Z,100.00
2019-03-30T00:36:12.917Z,100.00
2019-03-30T00:38:43.674Z,100.00
2019-03-30T00:41:14.672Z,100.00
2019-03-30T00:43:45.415Z,100.00
2019-03-30T00:46:16.225Z,100.00
2019-03-30T00:48:46.955Z,100.00
2019-03-30T00:51:17.783Z,100.00
2019-03-30T00:53:48.547Z,100.00
2019-03-30T00:56:19.942Z,100.00
2019-03-30T00:58:50.679Z,100.00
2019-03-30T01:01:21.420Z,100.00
2019-03-30T01:03:52.175Z,100.00
2019-03-30T01:06:23.019Z,100.00
2019-03-30T01:08:53.782Z,100.00
2019-03-30T01:11:25.295Z,100.00
2019-03-30T01:13:56.071Z,100.00
2019-03-30T01:16:26.859Z,100.00
2019-03-30T01:18:57.748Z,100.00
2019-03-30T01:21:28.647Z,100.00
2019-03-30T01:23:59.855Z,100.00
2019-03-30T01:26:30.592Z,100.00
2019-03-30T01:29:01.663Z,100.00
2019-03-30T01:31:32.403Z,100.00
2019-03-30T01:34:06.031Z,100.00
2019-03-30T01:36:37.046Z,100.00
2019-03-30T01:39:09.207Z,100.00
2019-03-30T01:41:40.253Z,100.00
2019-03-30T01:44:11.161Z,100.00
2019-03-30T01:46:42.032Z,100.00
2019-03-30T01:49:13.119Z,100.00
2019-03-30T01:51:43.868Z,100.00
2019-03-30T01:54:14.630Z,100.00
2019-03-30T01:56:45.343Z,100.00
2019-03-30T01:59:16.101Z,100.00
2019-03-30T02:01:46.857Z,100.00
2019-03-30T02:04:17.674Z,100.00
2019-03-30T02:06:48.376Z,100.00
2019-03-30T02:09:19.215Z,100.00
2019-03-30T02:11:50.011Z,100.00
2019-03-30T02:14:20.783Z,100.00
2019-03-30T02:16:51.572Z,100.00
2019-03-30T02:19:22.665Z,100.00
2019-03-30T02:21:53.389Z,100.00
2019-03-30T02:24:24.149Z,100.00
2019-03-30T02:26:54.916Z,100.00
2019-03-30T02:29:25.960Z,100.00
2019-03-30T02:31:56.745Z,100.00
2019-03-30T02:34:27.581Z,100.00
2019-03-30T02:36:58.458Z,100.00
2019-03-30T02:39:29.218Z,100.00
2019-03-30T02:42:00.121Z,100.00
2019-03-30T02:44:30.883Z,100.00
2019-03-30T02:47:01.595Z,100.00
2019-03-30T02:49:32.346Z,100.00
2019-03-30T02:52:03.064Z,100.00
2019-03-30T02:54:33.800Z,100.00
2019-03-30T02:57:04.817Z,100.00
2019-03-30T02:59:35.551Z,100.00
2019-03-30T03:02:06.303Z,100.00
2019-03-30T03:04:37.056Z,100.00
2019-03-30T03:07:07.881Z,100.00
2019-03-30T03:09:38.779Z,100.00
2019-03-30T03:12:09.513Z,100.00
2019-03-30T03:14:40.277Z,100.00
2019-03-30T03:17:10.981Z,100.00
2019-03-30T03:19:42.275Z,100.00
2019-03-30T03:22:12.975Z,100.00
2019-03-30T03:24:43.727Z,100.00
2019-03-30T03:27:14.636Z,100.00
2019-03-30T03:29:45.494Z,100.00
2019-03-30T03:32:16.197Z,100.00
2019-03-30T03:34:46.953Z,100.00
2019-03-30T03:37:17.690Z,100.00
2019-03-30T03:39:48.495Z,100.00
2019-03-30T03:42:19.204Z,100.00
2019-03-30T03:44:50.196Z,100.00
2019-03-30T03:47:20.903Z,100.00
2019-03-30T03:49:52.117Z,100.00
2019-03-30T03:52:22.993Z,100.00
2019-03-30T03:54:54.639Z,100.00
2019-03-30T03:57:28.307Z,100.00
2019-03-30T04:00:00.614Z,100.00
2019-03-30T04:02:37.098Z,100.00
2019-03-30T04:05:09.746Z,100.00
2019-03-30T04:07:43.134Z,100.00
2019-03-30T04:10:14.021Z,100.00
2019-03-30T04:12:47.434Z,100.00
2019-03-30T04:15:27.490Z,100.00
2019-03-30T04:17:58.193Z,100.00
2019-03-30T04:20:29.313Z,100.00
2019-03-30T04:23:00.033Z,100.00
2019-03-30T04:25:30.780Z,100.00
2019-03-30T04:28:02.517Z,100.00
2019-03-30T04:30:33.268Z,100.00
2019-03-30T04:33:03.992Z,100.00
2019-03-30T04:35:35.238Z,100.00
2019-03-30T04:38:06.134Z,100.00
2019-03-30T04:40:36.959Z,100.00
2019-03-30T04:43:07.730Z,100.00
2019-03-30T04:45:38.557Z,100.00
2019-03-30T04:48:09.254Z,100.00
2019-03-30T04:50:40.095Z,100.00
2019-03-30T04:53:11.002Z,100.00
2019-03-30T04:55:42.001Z,100.00
2019-03-30T04:58:12.775Z,100.00
2019-03-30T05:00:43.580Z,100.00
2019-03-30T05:03:14.400Z,100.00
2019-03-30T05:05:45.223Z,100.00
2019-03-30T05:08:16.002Z,100.00
2019-03-30T05:10:46.823Z,100.00
2019-03-30T05:13:17.764Z,100.00
2019-03-30T05:15:48.833Z,100.00
2019-03-30T05:18:19.577Z,100.00
2019-03-30T05:20:50.315Z,100.00
2019-03-30T05:23:21.798Z,100.00
2019-03-30T05:25:52.601Z,100.00
2019-03-30T05:28:23.321Z,100.00
2019-03-30T05:30:54.115Z,100.00
2019-03-30T05:33:24.831Z,100.00
2019-03-30T05:35:55.560Z,100.00
2019-03-30T05:38:26.267Z,100.00
2019-03-30T05:40:57.135Z,100.00
2019-03-30T05:43:27.853Z,100.00
2019-03-30T05:45:58.767Z,100.00
2019-03-30T05:48:29.554Z,100.00
2019-03-30T05:51:00.312Z,100.00
2019-03-30T05:53:31.213Z,100.00
2019-03-30T05:56:02.277Z,100.00
2019-03-30T05:58:32.959Z,100.00
2019-03-30T06:01:03.701Z,100.00
2019-03-30T06:03:34.656Z,100.00
2019-03-30T06:06:05.656Z,100.00
2019-03-30T06:08:36.401Z,100.00
2019-03-30T06:11:07.211Z,100.00
2019-03-30T06:13:37.929Z,100.00
2019-03-30T06:16:08.782Z,99.82
2019-03-30T06:18:39.509Z,100.00
2019-03-30T06:21:10.252Z,94.11
2019-03-30T06:23:41.661Z,92.81
2019-03-30T06:26:12.426Z,90.54
2019-03-30T06:28:43.128Z,87.65
2019-03-30T06:31:13.933Z,82.93
2019-03-30T06:33:44.663Z,83.40
2019-03-30T06:36:15.405Z,83.68
2019-03-30T06:38:46.095Z,77.13
2019-03-30T06:41:17.664Z,75.42
2019-03-30T06:43:48.357Z,73.37
2019-03-30T06:46:19.447Z,72.54
2019-03-30T06:48:50.178Z,71.17
2019-03-30T06:51:20.942Z,68.71
2019-03-30T06:53:51.642Z,68.83
2019-03-30T06:56:22.426Z,67.47
2019-03-30T06:58:53.311Z,64.50
2019-03-30T07:01:24.207Z,65.05
2019-03-30T07:03:55.514Z,68.14
2019-03-30T07:06:26.545Z,63.14
2019-03-30T07:08:58.218Z,64.46
2019-03-30T07:11:32.761Z,61.84
2019-03-30T07:14:05.526Z,66.28
2019-03-30T07:16:38.555Z,65.31
2019-03-30T07:19:09.649Z,65.93
2019-03-30T07:21:40.383Z,63.23
2019-03-30T07:24:11.097Z,62.36
2019-03-30T07:26:41.843Z,60.77
2019-03-30T07:29:12.638Z,62.59
2019-03-30T07:31:43.473Z,61.61
2019-03-30T07:34:14.225Z,63.81
2019-03-30T07:36:45.519Z,64.96
2019-03-30T07:39:16.216Z,62.48
2019-03-30T07:41:47.061Z,59.88
2019-03-30T07:44:17.757Z,62.14
2019-03-30T07:46:48.579Z,56.74
2019-03-30T07:49:19.348Z,56.04
2019-03-30T07:51:50.125Z,55.44
2019-03-30T07:54:20.858Z,53.12
2019-03-30T07:57:04.176Z,50.22
2019-03-30T07:59:24.413Z,52.07
2019-03-30T08:01:55.191Z,51.47
2019-03-30T08:04:28.665Z,48.41
2019-03-30T08:06:58.792Z,46.22
2019-03-30T08:09:29.692Z,45.68
2019-03-30T08:12:00.822Z,44.00
2019-03-30T08:14:31.700Z,42.50
2019-03-30T08:17:02.435Z,44.23
2019-03-30T08:19:33.561Z,40.75
2019-03-30T08:22:04.340Z,36.61
2019-03-30T08:24:35.209Z,33.46
2019-03-30T08:27:05.961Z,34.35
2019-03-30T08:29:36.773Z,34.42
2019-03-30T08:32:07.553Z,33.94
2019-03-30T08:34:39.154Z,31.43
2019-03-30T08:37:09.884Z,29.67
2019-03-30T08:39:40.612Z,28.91
2019-03-30T08:42:11.332Z,27.96
2019-03-30T08:44:42.087Z,27.18
2019-03-30T08:47:12.798Z,26.27
2019-03-30T08:49:43.679Z,28.05
2019-03-30T08:52:14.402Z,26.28
2019-03-30T08:54:45.158Z,26.22
2019-03-30T08:57:16.396Z,26.04
2019-03-30T08:59:47.147Z,26.17
2019-03-30T09:02:18.229Z,27.66
2019-03-30T09:04:48.942Z,24.84
2019-03-30T09:07:19.968Z,25.14
2019-03-30T09:09:50.691Z,25.61
2019-03-30T09:12:21.673Z,26.09
2019-03-30T09:14:52.410Z,26.36
2019-03-30T09:17:23.121Z,25.61
2019-03-30T09:19:54.408Z,25.35
2019-03-30T09:22:25.132Z,26.79
2019-03-30T09:24:55.865Z,30.34
2019-03-30T09:27:26.618Z,28.69
2019-03-30T09:29:57.349Z,30.48
2019-03-30T09:32:28.339Z,32.75
2019-03-30T09:34:59.138Z,34.90
2019-03-30T09:37:29.894Z,36.57
2019-03-30T09:40:00.590Z,36.15
2019-03-30T09:42:31.386Z,36.53
2019-03-30T09:45:02.114Z,38.20
2019-03-30T09:47:33.305Z,38.06
2019-03-30T09:50:04.305Z,39.83
2019-03-30T09:52:35.068Z,39.10
2019-03-30T09:55:06.386Z,39.51
2019-03-30T09:57:37.129Z,40.49
2019-03-30T10:00:09.634Z,40.34
2019-03-30T10:02:40.399Z,40.09
2019-03-30T10:05:11.354Z,40.47
2019-03-30T10:07:42.137Z,41.34
2019-03-30T10:10:13.355Z,41.30
2019-03-30T10:12:44.105Z,41.31
2019-03-30T10:15:15.405Z,42.00
2019-03-30T10:17:46.148Z,42.67
2019-03-30T10:20:17.308Z,43.37
2019-03-30T10:22:48.699Z,43.72
2019-03-30T10:25:19.405Z,42.58
2019-03-30T10:27:50.140Z,41.26
2019-03-30T10:30:21.048Z,41.31
2019-03-30T10:32:51.803Z,40.54
2019-03-30T10:35:22.649Z,40.58
2019-03-30T10:37:53.381Z,39.41
2019-03-30T10:40:24.278Z,39.55
2019-03-30T10:42:55.027Z,39.24
2019-03-30T10:45:26.162Z,38.64
2019-03-30T10:47:56.896Z,38.07
2019-03-30T10:50:27.655Z,36.96
2019-03-30T10:52:58.487Z,35.92
2019-03-30T10:55:29.274Z,35.64
2019-03-30T10:58:00.014Z,35.57
2019-03-30T11:00:38.336Z,34.30
2019-03-30T11:03:09.675Z,33.91
2019-03-30T11:05:40.558Z,34.65
2019-03-30T11:08:11.302Z,34.11
2019-03-30T11:10:42.954Z,34.19
2019-03-30T11:13:13.711Z,33.74
2019-03-30T11:15:44.434Z,32.78
2019-03-30T11:18:15.339Z,30.90
2019-03-30T11:20:46.129Z,31.62
2019-03-30T11:23:16.941Z,31.73
2019-03-30T11:25:50.222Z,31.23
2019-03-30T11:28:20.961Z,30.44
2019-03-30T11:30:51.694Z,31.61
2019-03-30T11:33:23.075Z,29.52
2019-03-30T11:35:53.817Z,26.32
2019-03-30T11:38:24.586Z,22.40
2019-03-30T11:40:55.293Z,22.83
2019-03-30T11:43:26.116Z,21.55
2019-03-30T11:45:57.057Z,17.97
2019-03-30T11:48:27.790Z,17.48
2019-03-30T11:50:59.213Z,17.98
2019-03-30T11:53:29.976Z,15.24
2019-03-30T11:56:00.747Z,17.01
2019-03-30T11:58:32.058Z,16.35
2019-03-30T12:01:02.773Z,13.06
2019-03-30T12:03:34.260Z,12.19
2019-03-30T12:06:05.117Z,15.72
2019-03-30T12:08:35.944Z,12.72
2019-03-30T12:11:07.633Z,13.06
2019-03-30T12:13:38.394Z,11.88
2019-03-30T12:16:09.247Z,10.70
2019-03-30T12:18:39.990Z,13.03
2019-03-30T12:21:10.761Z,12.41
2019-03-30T12:23:42.833Z,13.62
2019-03-30T12:26:14.441Z,15.61
2019-03-30T12:28:45.194Z,15.24
2019-03-30T12:31:16.663Z,14.38
2019-03-30T12:33:47.553Z,12.84
2019-03-30T12:36:18.405Z,14.04
2019-03-30T12:38:49.165Z,12.90
2019-03-30T12:41:20.335Z,12.04
2019-03-30T12:43:51.162Z,11.99
2019-03-30T12:46:21.888Z,12.78
2019-03-30T12:48:52.629Z,15.01
2019-03-30T12:51:23.721Z,15.99
2019-03-30T12:53:55.345Z,18.40
2019-03-30T12:56:26.539Z,21.73
2019-03-30T12:58:57.300Z,22.19
2019-03-30T13:01:28.106Z,23.69
2019-03-30T13:03:58.835Z,25.39
2019-03-30T13:06:29.594Z,25.45
2019-03-30T13:09:00.325Z,26.10
2019-03-30T13:11:31.585Z,26.29
2019-03-30T13:14:02.321Z,26.05
2019-03-30T13:16:33.035Z,26.29
2019-03-30T13:19:04.006Z,26.64
2019-03-30T13:21:34.781Z,24.40
2019-03-30T13:24:05.669Z,19.89
2019-03-30T13:26:36.404Z,18.32
2019-03-30T13:29:07.228Z,17.12
2019-03-30T13:31:37.972Z,16.31
2019-03-30T13:34:08.713Z,16.86
2019-03-30T13:36:40.673Z,15.36
2019-03-30T13:39:11.918Z,15.54
2019-03-30T13:41:43.098Z,16.44
2019-03-30T13:44:13.841Z,16.44
2019-03-30T13:46:44.633Z,14.97
2019-03-30T13:49:16.201Z,14.85
2019-03-30T13:51:46.902Z,15.72
2019-03-30T13:54:17.870Z,17.89
2019-03-30T13:56:49.142Z,17.58
2019-03-30T13:59:19.976Z,16.07
2019-03-30T14:01:50.789Z,17.22
2019-03-30T14:04:21.949Z,15.74
2019-03-30T14:06:52.919Z,15.32
2019-03-30T14:09:23.768Z,14.54
2019-03-30T14:11:54.656Z,14.50
2019-03-30T14:14:26.032Z,15.84
2019-03-30T14:16:57.034Z,13.79
2019-03-30T14:19:28.040Z,14.64
2019-03-30T14:21:59.005Z,13.59
2019-03-30T14:24:29.992Z,14.15
2019-03-30T14:27:00.760Z,16.75
2019-03-30T14:29:31.693Z,19.64
2019-03-30T14:32:02.387Z,22.11
2019-03-30T14:34:33.199Z,22.93
2019-03-30T14:37:04.173Z,25.11
2019-03-30T14:39:35.155Z,24.89
2019-03-30T14:42:05.977Z,25.50
2019-03-30T14:44:36.718Z,25.36
2019-03-30T14:47:07.482Z,25.28
2019-03-30T14:49:38.419Z,26.39
2019-03-30T14:52:09.490Z,26.27
2019-03-30T14:54:52.062Z,26.82
2019-03-30T14:57:12.932Z,26.42
2019-03-30T14:59:43.736Z,26.13
2019-03-30T15:02:14.490Z,23.87
2019-03-30T15:04:45.246Z,21.33
2019-03-30T15:07:15.972Z,20.00
2019-03-30T15:09:46.806Z,18.72
2019-03-30T15:12:17.505Z,19.11
2019-03-30T15:14:48.345Z,18.46
2019-03-30T15:17:19.676Z,17.50
2019-03-30T15:19:50.396Z,18.01
2019-03-30T15:22:21.251Z,21.14
2019-03-30T15:24:51.951Z,21.40
2019-03-30T15:27:22.692Z,23.31
2019-03-30T15:29:53.468Z,24.07
2019-03-30T15:32:24.827Z,25.42
2019-03-30T15:34:58.295Z,26.13
2019-03-30T15:37:28.139Z,24.75
2019-03-30T15:39:58.873Z,24.57
2019-03-30T15:42:29.628Z,24.95
2019-03-30T15:45:00.673Z,24.79
2019-03-30T15:47:31.591Z,25.67
2019-03-30T15:50:02.301Z,26.21
2019-03-30T15:52:33.202Z,27.29
2019-03-30T15:55:04.281Z,26.76
2019-03-30T15:57:35.113Z,28.05
2019-03-30T16:00:07.261Z,28.70
2019-03-30T16:02:38.239Z,29.33
2019-03-30T16:05:09.544Z,29.36
2019-03-30T16:07:40.361Z,29.69
2019-03-30T16:10:12.103Z,30.23
2019-03-30T16:12:43.127Z,30.04
2019-03-30T16:15:14.122Z,30.34
2019-03-30T16:17:44.870Z,29.92
2019-03-30T16:20:16.231Z,30.48
2019-03-30T16:22:47.127Z,30.32
2019-03-30T16:25:18.475Z,30.58
2019-03-30T16:27:49.199Z,30.66
2019-03-30T16:30:20.466Z,30.89
2019-03-30T16:32:51.588Z,31.06
2019-03-30T16:35:22.255Z,30.99
2019-03-30T16:37:52.997Z,31.34
2019-03-30T16:40:24.077Z,30.99
2019-03-30T16:42:55.152Z,31.14
2019-03-30T16:45:25.877Z,31.01
2019-03-30T16:47:57.063Z,31.38
2019-03-30T16:50:28.022Z,31.68
2019-03-30T16:52:58.802Z,31.93
2019-03-30T16:55:29.791Z,31.63
2019-03-30T16:58:00.779Z,31.77
2019-03-30T17:00:35.261Z,31.79
2019-03-30T17:03:06.431Z,32.31
2019-03-30T17:05:37.155Z,31.81
2019-03-30T17:08:08.024Z,32.25
2019-03-30T17:10:40.505Z,32.52
2019-03-30T17:13:11.240Z,32.71
2019-03-30T17:15:41.953Z,33.06
2019-03-30T17:18:13.303Z,33.85
2019-03-30T17:20:44.290Z,33.73
2019-03-30T17:23:15.079Z,33.69
2019-03-30T17:25:45.767Z,34.05
2019-03-30T17:28:16.535Z,34.31
2019-03-30T17:30:47.324Z,34.75
2019-03-30T17:33:18.088Z,34.53
2019-03-30T17:35:49.332Z,34.69
2019-03-30T17:38:20.051Z,34.38
2019-03-30T17:40:51.540Z,34.58
2019-03-30T17:43:22.362Z,35.22
2019-03-30T17:45:53.160Z,35.27
2019-03-30T17:48:23.909Z,37.24
2019-03-30T17:50:57.964Z,38.99
2019-03-30T17:53:27.213Z,38.17
2019-03-30T17:55:57.947Z,41.14
2019-03-30T17:58:28.700Z,42.03
2019-03-30T18:00:59.400Z,39.77
2019-03-30T18:03:30.175Z,40.54
2019-03-30T18:06:00.882Z,41.74
2019-03-30T18:08:31.688Z,40.89
2019-03-30T18:11:04.128Z,43.28
2019-03-30T18:13:36.953Z,42.26
2019-03-30T18:16:07.779Z,42.45
2019-03-30T18:18:38.591Z,43.01
2019-03-30T18:21:09.793Z,41.25
2019-03-30T18:23:40.536Z,41.98
2019-03-30T18:26:11.247Z,42.76
2019-03-30T18:28:42.023Z,42.33
2019-03-30T18:31:12.729Z,42.43
2019-03-30T18:33:44.219Z,44.62
2019-03-30T18:36:17.652Z,44.79
2019-03-30T18:38:50.682Z,44.46
2019-03-30T18:41:21.582Z,44.28
2019-03-30T18:43:52.791Z,44.89
2019-03-30T18:46:23.520Z,46.20
2019-03-30T18:48:54.337Z,45.14
2019-03-30T18:51:25.765Z,45.46
2019-03-30T18:53:56.690Z,46.05
2019-03-30T18:56:28.036Z,44.22
2019-03-30T18:58:58.861Z,45.69
2019-03-30T19:01:29.553Z,45.31
2019-03-30T19:04:00.343Z,45.82
2019-03-30T19:06:31.097Z,46.06
2019-03-30T19:09:01.852Z,45.16
2019-03-30T19:11:32.579Z,46.00
2019-03-30T19:14:03.423Z,45.96
2019-03-30T19:16:34.476Z,46.10
2019-03-30T19:19:05.209Z,46.63
2019-03-30T19:21:35.911Z,47.57
2019-03-30T19:24:06.808Z,47.25
2019-03-30T19:26:37.614Z,47.85
2019-03-30T19:29:08.340Z,47.59
2019-03-30T19:31:39.129Z,46.70
2019-03-30T19:34:10.317Z,48.52
2019-03-30T19:36:41.114Z,48.88
2019-03-30T19:39:11.911Z,48.40
2019-03-30T19:41:42.644Z,48.89
2019-03-30T19:44:14.121Z,49.25
2019-03-30T19:46:44.929Z,50.28
2019-03-30T19:49:15.715Z,50.39
2019-03-30T19:51:46.451Z,50.90
2019-03-30T19:54:17.199Z,49.55
2019-03-30T19:56:47.992Z,50.24
2019-03-30T19:59:18.879Z,52.97
2019-03-30T20:01:49.595Z,53.79
2019-03-30T20:04:20.374Z,54.08
2019-03-30T20:06:51.211Z,55.89
2019-03-30T20:09:22.271Z,57.50
2019-03-30T20:11:53.714Z,55.56
2019-03-30T20:14:24.565Z,59.74
2019-03-30T20:16:55.618Z,56.96
2019-03-30T20:19:26.691Z,58.34
2019-03-30T20:21:57.650Z,56.69
2019-03-30T20:24:28.366Z,59.07
2019-03-30T20:26:59.215Z,56.91
2019-03-30T20:29:30.413Z,56.10
2019-03-30T20:32:01.119Z,57.08
2019-03-30T20:34:31.895Z,54.52
2019-03-30T20:37:02.670Z,54.49
2019-03-30T20:39:33.413Z,56.03
2019-03-30T20:42:04.142Z,56.42
2019-03-30T20:44:35.046Z,55.89
2019-03-30T20:47:05.854Z,56.15
2019-03-30T20:49:36.603Z,58.85
2019-03-30T20:52:07.587Z,57.56
2019-03-30T20:54:39.019Z,58.87
2019-03-30T20:57:09.826Z,58.72
2019-03-30T20:59:40.817Z,59.45
2019-03-30T21:02:11.536Z,61.51
2019-03-30T21:04:42.544Z,61.52
2019-03-30T21:07:13.320Z,62.24
2019-03-30T21:09:44.042Z,63.29
2019-03-30T21:12:15.527Z,64.76
2019-03-30T21:14:46.534Z,65.64
2019-03-30T21:17:17.821Z,64.98
2019-03-30T21:19:48.553Z,64.47
2019-03-30T21:22:19.336Z,65.31
2019-03-30T21:24:50.264Z,66.22
2019-03-30T21:27:21.101Z,67.40
2019-03-30T21:29:54.995Z,66.81
2019-03-30T21:32:25.932Z,67.75
2019-03-30T21:34:57.358Z,69.23
2019-03-30T21:37:28.092Z,69.34
2019-03-30T21:39:58.898Z,70.06
2019-03-30T21:42:29.603Z,73.32
2019-03-30T21:45:00.526Z,73.47
2019-03-30T21:47:31.430Z,70.12
2019-03-30T21:50:02.169Z,68.50
2019-03-30T21:52:32.908Z,69.22
2019-03-30T21:55:04.371Z,71.09
2019-03-30T21:57:40.895Z,69.56
2019-03-30T22:00:15.021Z,71.53
2019-03-30T22:02:45.757Z,76.25
2019-03-30T22:05:16.617Z,74.79
2019-03-30T22:07:47.429Z,75.43
2019-03-30T22:10:28.213Z,75.49
2019-03-30T22:12:59.103Z,74.61
2019-03-30T22:15:31.042Z,75.70
2019-03-30T22:18:01.789Z,76.02
2019-03-30T22:20:32.609Z,75.72
2019-03-30T22:23:03.306Z,77.17
2019-03-30T22:25:34.129Z,76.65
2019-03-30T22:28:04.858Z,78.22
2019-03-30T22:30:35.658Z,76.91
2019-03-30T22:33:06.803Z,77.65
2019-03-30T22:35:37.772Z,77.22
2019-03-30T22:38:08.561Z,76.08
2019-03-30T22:40:41.385Z,75.52
2019-03-30T22:43:11.831Z,77.08
2019-03-30T22:45:43.160Z,77.12
2019-03-30T22:48:14.008Z,77.76
2019-03-30T22:50:44.755Z,77.92
2019-03-30T22:53:15.556Z,79.40
2019-03-30T22:55:46.304Z,81.05
2019-03-30T22:58:17.000Z,82.12
2019-03-30T23:00:59.319Z,82.27
2019-03-30T23:03:30.027Z,83.17
2019-03-30T23:06:01.547Z,83.87
2019-03-30T23:08:32.244Z,83.80
2019-03-30T23:11:03.298Z,83.18
2019-03-30T23:13:34.049Z,82.33
2019-03-30T23:16:04.879Z,83.15
2019-03-30T23:18:35.708Z,81.61
2019-03-30T23:21:07.794Z,83.73
2019-03-30T23:23:38.510Z,83.47
2019-03-30T23:26:09.391Z,82.12
2019-03-30T23:28:40.183Z,85.22
2019-03-30T23:31:10.979Z,85.50
2019-03-30T23:33:41.765Z,86.80
2019-03-30T23:36:13.686Z,88.12
2019-03-30T23:38:44.423Z,88.55
2019-03-30T23:41:15.159Z,88.61
2019-03-30T23:43:45.860Z,90.54
2019-03-30T23:46:16.797Z,87.82
2019-03-30T23:48:47.508Z,88.93
2019-03-30T23:51:18.262Z,89.23
2019-03-30T23:53:48.978Z,91.69
2019-03-30T23:56:23.163Z,91.35
2019-03-30T23:58:54.348Z,93.11
